Time;durP1;ratioP1;P1;durP2;ratioP2;P2;SDS_P1;SDS_P2;PMS_P1;PMS_P2;Temp;Humidity;BMP_temperature;BMP_pressure;BME280_temperature;BME280_humidity;BME280_pressure;Samples;Min_cycle;Max_cycle;Signal;HPM_P1;HPM_P2
2021/11/07 00:03:47;;;;;;;;;;;15.50;69.70;;;;;;4263541;27;19919;-66
2021/11/07 00:10:19;;;;;;;;;;;15.40;69.60;;;;;;4257745;27;20255;-74
2021/11/07 00:12:25;;;;;;;;;;;15.40;69.60;;;;;;4249372;27;19923;-64
2021/11/07 00:14:29;;;;;;;;;;;15.40;69.70;;;;;;4249734;27;19919;-65
2021/11/07 00:16:35;;;;;;;;;;;15.40;69.70;;;;;;4257331;27;19923;-71
2021/11/07 00:18:46;;;;;;;;;;;15.40;69.70;;;;;;4262224;27;19964;-69
2021/11/07 00:21:01;;;;;;;;;;;15.40;69.70;;;;;;4251149;27;19972;-67
2021/11/07 00:27:28;;;;;;;;;;;15.40;69.80;;;;;;4253942;27;20355;-73
2021/11/07 00:29:48;;;;;;;;;;;15.40;69.70;;;;;;4248386;27;19930;-70
2021/11/07 00:32:04;;;;;;;;;;;15.40;69.80;;;;;;4261362;27;19964;-66
2021/11/07 00:36:38;;;;;;;;;;;15.40;69.80;;;;;;4252425;27;19979;-66
2021/11/07 00:41:03;;;;;;;;;;;15.40;69.70;;;;;;4257984;27;19926;-67
2021/11/07 00:49:40;;;;;;;;;;;15.40;69.70;;;;;;4250759;27;19926;-68
2021/11/07 00:54:14;;;;;;;;;;;15.40;69.90;;;;;;4247187;27;19923;-70
2021/11/07 00:56:27;;;;;;;;;;;15.40;69.90;;;;;;4252754;27;20455;-66
2021/11/07 00:58:40;;;;;;;;;;;15.40;69.80;;;;;;4251689;27;19972;-70
2021/11/07 01:02:53;;;;;;;;;;;15.40;69.90;;;;;;4258445;27;19923;-67
2021/11/07 01:04:55;;;;;;;;;;;15.40;70.00;;;;;;4247072;27;19976;-69
2021/11/07 01:06:58;;;;;;;;;;;15.40;69.90;;;;;;4255478;27;19968;-70
2021/11/07 01:09:01;;;;;;;;;;;15.40;70.00;;;;;;4250435;27;19935;-68
2021/11/07 01:11:04;;;;;;;;;;;15.40;70.00;;;;;;4248055;27;19919;-71
2021/11/07 01:13:07;;;;;;;;;;;15.40;70.00;;;;;;4258113;27;19980;-69
2021/11/07 01:15:10;;;;;;;;;;;15.40;70.00;;;;;;4246563;27;19964;-66
2021/11/07 01:17:14;;;;;;;;;;;15.40;70.00;;;;;;4254297;27;19963;-68
2021/11/07 01:19:17;;;;;;;;;;;15.40;70.00;;;;;;4263645;27;20550;-66
2021/11/07 01:21:20;;;;;;;;;;;15.40;70.00;;;;;;4262162;27;19930;-68
2021/11/07 01:23:31;;;;;;;;;;;15.40;70.00;;;;;;4251769;27;19926;-67
2021/11/07 01:25:40;;;;;;;;;;;15.40;70.00;;;;;;4263768;27;19919;-67
2021/11/07 01:27:45;;;;;;;;;;;15.40;69.90;;;;;;4253936;27;19919;-64
2021/11/07 01:29:51;;;;;;;;;;;15.40;69.90;;;;;;4261299;27;19964;-64
2021/11/07 01:31:56;;;;;;;;;;;15.40;70.10;;;;;;4256854;27;19988;-64
2021/11/07 01:34:01;;;;;;;;;;;15.40;69.90;;;;;;4252278;27;19918;-65
2021/11/07 01:40:20;;;;;;;;;;;15.40;70.10;;;;;;4249102;27;19923;-66
2021/11/07 01:44:39;;;;;;;;;;;15.40;70.00;;;;;;4256001;27;20554;-66
2021/11/07 01:46:46;;;;;;;;;;;15.40;70.00;;;;;;4246496;27;20054;-67
2021/11/07 01:51:06;;;;;;;;;;;15.40;70.10;;;;;;4246455;28;19923;-64
2021/11/07 01:53:32;;;;;;;;;;;15.40;70.00;;;;;;4252156;27;19927;-69
2021/11/07 01:55:32;;;;;;;;;;;15.40;70.10;;;;;;4249674;27;19964;-67
2021/11/07 01:57:36;;;;;;;;;;;15.30;70.10;;;;;;4247261;27;19934;-66
2021/11/07 01:59:42;;;;;;;;;;;15.40;70.20;;;;;;4257339;27;20436;-70
2021/11/07 02:01:49;;;;;;;;;;;15.30;69.90;;;;;;4246387;28;19961;-66
2021/11/07 02:03:51;;;;;;;;;;;15.30;70.00;;;;;;4254164;27;19919;-67
2021/11/07 02:05:54;;;;;;;;;;;15.40;70.20;;;;;;4249582;27;19927;-68
2021/11/07 02:07:58;;;;;;;;;;;15.30;70.10;;;;;;4247652;27;20333;-64
2021/11/07 02:10:04;;;;;;;;;;;15.30;70.20;;;;;;4257738;27;19919;-64
2021/11/07 02:12:07;;;;;;;;;;;15.30;70.00;;;;;;4246737;28;20325;-65
2021/11/07 02:14:10;;;;;;;;;;;15.30;70.30;;;;;;4255628;27;19923;-66
2021/11/07 02:16:13;;;;;;;;;;;15.30;70.00;;;;;;4250773;27;19964;-69
2021/11/07 02:18:17;;;;;;;;;;;15.30;70.20;;;;;;4248082;27;19923;-66
2021/11/07 02:20:25;;;;;;;;;;;15.30;70.20;;;;;;4251391;27;20280;-64
2021/11/07 02:22:28;;;;;;;;;;;15.30;70.30;;;;;;4263347;27;19919;-66
2021/11/07 02:24:31;;;;;;;;;;;15.30;70.30;;;;;;4254277;27;19924;-65
2021/11/07 02:26:34;;;;;;;;;;;15.30;70.30;;;;;;4259388;27;20349;-68
2021/11/07 02:28:37;;;;;;;;;;;15.30;70.30;;;;;;4261429;27;19919;-67
2021/11/07 02:30:40;;;;;;;;;;;15.30;70.40;;;;;;4251060;27;20544;-67
2021/11/07 02:32:43;;;;;;;;;;;15.30;70.30;;;;;;4247173;27;19923;-67
2021/11/07 02:34:46;;;;;;;;;;;15.30;70.40;;;;;;4253624;27;19918;-67
2021/11/07 02:36:50;;;;;;;;;;;15.30;70.30;;;;;;4250415;27;19920;-67
2021/11/07 02:38:53;;;;;;;;;;;15.30;70.40;;;;;;4247283;27;19923;-66
2021/11/07 02:40:57;;;;;;;;;;;15.30;70.40;;;;;;4257222;27;19976;-64
2021/11/07 02:42:59;;;;;;;;;;;15.30;70.40;;;;;;4246143;28;20420;-64
2021/11/07 02:45:02;;;;;;;;;;;15.30;70.20;;;;;;4253244;27;19948;-65
2021/11/07 02:47:07;;;;;;;;;;;15.30;70.50;;;;;;4254460;27;20378;-67
2021/11/07 02:49:10;;;;;;;;;;;15.30;70.60;;;;;;4255119;27;19919;-67
2021/11/07 02:51:13;;;;;;;;;;;15.30;70.60;;;;;;4260517;27;20512;-67
2021/11/07 02:53:17;;;;;;;;;;;15.30;70.70;;;;;;4248840;27;19980;-63
2021/11/07 02:55:23;;;;;;;;;;;15.30;70.60;;;;;;4256185;27;19927;-68
2021/11/07 02:57:26;;;;;;;;;;;15.30;70.70;;;;;;4254703;27;19927;-67
2021/11/07 02:59:35;;;;;;;;;;;15.30;70.70;;;;;;4250499;27;19958;-67
2021/11/07 03:01:37;;;;;;;;;;;15.30;70.70;;;;;;4260504;27;19923;-65
2021/11/07 03:03:40;;;;;;;;;;;15.30;70.70;;;;;;4248940;27;19922;-66
2021/11/07 03:05:43;;;;;;;;;;;15.30;70.90;;;;;;4255687;27;19919;-66
2021/11/07 03:07:46;;;;;;;;;;;15.30;70.90;;;;;;4253989;27;20390;-67
2021/11/07 03:09:50;;;;;;;;;;;15.30;70.80;;;;;;4250281;27;19968;-66
2021/11/07 03:11:55;;;;;;;;;;;15.30;70.90;;;;;;4260204;27;19919;-66
2021/11/07 03:14:02;;;;;;;;;;;15.30;70.80;;;;;;4248701;27;19935;-64
2021/11/07 03:16:07;;;;;;;;;;;15.30;71.00;;;;;;4255660;27;19919;-64
2021/11/07 03:18:10;;;;;;;;;;;15.30;71.10;;;;;;4252980;27;20491;-67
2021/11/07 03:20:14;;;;;;;;;;;15.30;71.20;;;;;;4249727;27;19931;-67
2021/11/07 03:22:17;;;;;;;;;;;15.30;71.00;;;;;;4253758;27;19919;-70
2021/11/07 03:24:20;;;;;;;;;;;15.30;70.90;;;;;;4265600;27;20264;-67
2021/11/07 03:26:26;;;;;;;;;;;15.30;70.90;;;;;;4258001;27;19919;-67
2021/11/07 03:28:31;;;;;;;;;;;15.30;71.20;;;;;;4260622;27;19979;-66
2021/11/07 03:30:53;;;;;;;;;;;15.30;71.30;;;;;;4263933;27;20376;-67
2021/11/07 03:33:08;;;;;;;;;;;15.30;71.30;;;;;;4253933;27;19963;-66
2021/11/07 03:35:17;;;;;;;;;;;15.30;71.30;;;;;;4265520;27;19979;-66
2021/11/07 03:37:26;;;;;;;;;;;15.30;71.40;;;;;;4253014;27;19923;-69
2021/11/07 03:39:29;;;;;;;;;;;15.30;71.40;;;;;;4248911;27;19923;-67
2021/11/07 03:41:34;;;;;;;;;;;15.30;71.40;;;;;;4252913;27;20345;-66
2021/11/07 03:43:37;;;;;;;;;;;15.30;71.60;;;;;;4256132;27;19919;-66
2021/11/07 03:45:40;;;;;;;;;;;15.30;71.60;;;;;;4248280;27;20460;-65
2021/11/07 03:47:42;;;;;;;;;;;15.30;71.60;;;;;;4260528;27;19919;-65
2021/11/07 03:49:45;;;;;;;;;;;15.30;71.60;;;;;;4256301;27;19919;-64
2021/11/07 03:51:48;;;;;;;;;;;15.30;71.70;;;;;;4252571;27;19918;-64
2021/11/07 03:53:50;;;;;;;;;;;15.30;71.40;;;;;;4255693;27;19968;-67
2021/11/07 03:55:53;;;;;;;;;;;15.30;71.20;;;;;;4265290;27;19919;-66
2021/11/07 03:57:57;;;;;;;;;;;15.30;71.80;;;;;;4253241;27;19972;-68
2021/11/07 04:00:00;;;;;;;;;;;15.30;71.40;;;;;;4263998;27;19919;-66
2021/11/07 04:02:03;;;;;;;;;;;15.30;71.70;;;;;;4262525;27;19919;-64
2021/11/07 04:04:07;;;;;;;;;;;15.30;71.70;;;;;;4254665;27;19923;-65
2021/11/07 04:06:12;;;;;;;;;;;15.30;71.70;;;;;;4264887;27;20332;-64
2021/11/07 04:08:14;;;;;;;;;;;15.30;71.90;;;;;;4253347;27;19926;-65
2021/11/07 04:10:17;;;;;;;;;;;15.30;71.80;;;;;;4263185;27;19919;-68
2021/11/07 04:12:20;;;;;;;;;;;15.30;71.30;;;;;;4262468;27;19927;-67
2021/11/07 04:14:24;;;;;;;;;;;15.30;71.80;;;;;;4253911;27;19919;-68
2021/11/07 04:16:27;;;;;;;;;;;15.30;71.80;;;;;;4264781;27;19922;-64
2021/11/07 04:18:30;;;;;;;;;;;15.30;71.90;;;;;;4262792;27;19923;-68
2021/11/07 04:20:33;;;;;;;;;;;15.30;72.10;;;;;;4250088;27;19923;-66
2021/11/07 04:22:36;;;;;;;;;;;15.30;72.00;;;;;;4249518;27;20517;-69
2021/11/07 04:24:39;;;;;;;;;;;15.30;72.10;;;;;;4253866;27;19919;-67
2021/11/07 04:26:41;;;;;;;;;;;15.30;72.10;;;;;;4264489;27;19919;-68
2021/11/07 04:28:44;;;;;;;;;;;15.30;72.00;;;;;;4254956;27;20042;-68
2021/11/07 04:30:48;;;;;;;;;;;15.30;72.80;;;;;;4261457;27;19919;-66
2021/11/07 04:32:51;;;;;;;;;;;15.30;72.20;;;;;;4248533;27;19919;-68
2021/11/07 04:34:53;;;;;;;;;;;15.30;72.10;;;;;;4258702;27;19923;-67
2021/11/07 04:36:56;;;;;;;;;;;15.30;72.10;;;;;;4252236;27;20501;-67
2021/11/07 04:39:00;;;;;;;;;;;15.30;72.30;;;;;;4255303;27;20390;-68
2021/11/07 04:41:03;;;;;;;;;;;15.30;72.20;;;;;;4260374;27;20320;-64
2021/11/07 04:43:06;;;;;;;;;;;15.30;72.30;;;;;;4262412;27;19972;-65
2021/11/07 04:45:09;;;;;;;;;;;15.30;72.00;;;;;;4252667;27;19964;-64
2021/11/07 04:47:13;;;;;;;;;;;15.30;72.00;;;;;;4264193;27;19922;-64
2021/11/07 04:49:16;;;;;;;;;;;15.30;72.10;;;;;;4255544;27;19968;-64
2021/11/07 04:51:18;;;;;;;;;;;15.20;72.30;;;;;;4251581;27;19972;-67
2021/11/07 04:53:22;;;;;;;;;;;15.30;72.20;;;;;;4249561;27;19980;-68
2021/11/07 04:55:25;;;;;;;;;;;15.30;72.30;;;;;;4254026;27;19940;-65
2021/11/07 04:57:28;;;;;;;;;;;15.30;72.30;;;;;;4264849;27;19919;-66
2021/11/07 04:59:33;;;;;;;;;;;15.30;72.40;;;;;;4256454;27;19927;-65
2021/11/07 05:01:36;;;;;;;;;;;15.30;72.30;;;;;;4259218;27;19924;-70
2021/11/07 05:03:40;;;;;;;;;;;15.30;72.20;;;;;;4244738;27;19919;-67
2021/11/07 05:05:43;;;;;;;;;;;15.30;72.00;;;;;;4252678;27;19919;-67
2021/11/07 05:07:45;;;;;;;;;;;15.30;72.50;;;;;;4263874;27;19919;-65
2021/11/07 05:09:48;;;;;;;;;;;15.30;72.60;;;;;;4257075;27;19941;-68
2021/11/07 05:11:51;;;;;;;;;;;15.30;72.60;;;;;;4258044;27;19987;-67
2021/11/07 05:13:54;;;;;;;;;;;15.30;72.20;;;;;;4262423;27;19919;-64
2021/11/07 05:15:56;;;;;;;;;;;15.30;72.70;;;;;;4258091;27;19968;-65
2021/11/07 05:17:59;;;;;;;;;;;15.30;72.60;;;;;;4246810;27;19968;-67
2021/11/07 05:20:04;;;;;;;;;;;15.30;72.60;;;;;;4251060;27;19972;-65
2021/11/07 05:22:07;;;;;;;;;;;15.30;72.70;;;;;;4257261;27;19926;-67
2021/11/07 05:24:09;;;;;;;;;;;15.20;72.40;;;;;;4244495;27;19964;-64
2021/11/07 05:26:12;;;;;;;;;;;15.30;72.60;;;;;;4251487;27;19972;-66
2021/11/07 05:28:15;;;;;;;;;;;15.30;72.90;;;;;;4263674;27;19919;-68
2021/11/07 05:30:18;;;;;;;;;;;15.30;72.90;;;;;;4258312;27;19948;-65
2021/11/07 05:32:21;;;;;;;;;;;15.30;72.90;;;;;;4246393;27;19923;-67
2021/11/07 05:34:23;;;;;;;;;;;15.30;72.90;;;;;;4246553;27;19950;-66
2021/11/07 05:36:28;;;;;;;;;;;15.20;72.80;;;;;;4250582;27;19923;-67
2021/11/07 05:38:30;;;;;;;;;;;15.30;72.80;;;;;;4263589;27;19919;-66
2021/11/07 05:40:33;;;;;;;;;;;15.30;73.00;;;;;;4258454;27;20054;-68
2021/11/07 05:42:36;;;;;;;;;;;15.20;72.40;;;;;;4255324;27;19948;-67
2021/11/07 05:44:39;;;;;;;;;;;15.30;72.90;;;;;;4263290;27;20287;-67
2021/11/07 05:46:41;;;;;;;;;;;15.30;73.00;;;;;;4251200;27;19927;-67
2021/11/07 05:48:44;;;;;;;;;;;15.20;72.60;;;;;;4257463;27;19919;-67
2021/11/07 05:50:47;;;;;;;;;;;15.30;72.90;;;;;;4249400;27;19923;-66
2021/11/07 05:52:52;;;;;;;;;;;15.30;73.10;;;;;;4255498;27;19972;-67
2021/11/07 05:54:54;;;;;;;;;;;15.30;72.70;;;;;;4246494;28;19926;-70
2021/11/07 05:56:58;;;;;;;;;;;15.30;73.10;;;;;;4257964;27;19918;-67
2021/11/07 05:59:01;;;;;;;;;;;15.30;73.00;;;;;;4247086;27;19927;-68
2021/11/07 06:01:03;;;;;;;;;;;15.20;72.70;;;;;;4248782;27;19964;-64
2021/11/07 06:03:07;;;;;;;;;;;15.30;73.10;;;;;;4256055;27;19919;-68
2021/11/07 06:05:09;;;;;;;;;;;15.20;72.50;;;;;;4246278;28;19964;-65
2021/11/07 06:07:13;;;;;;;;;;;15.30;73.20;;;;;;4257209;27;19923;-69
2021/11/07 06:09:17;;;;;;;;;;;15.30;72.80;;;;;;4248152;27;19919;-68
2021/11/07 06:11:20;;;;;;;;;;;15.30;73.00;;;;;;4248303;27;19919;-67
2021/11/07 06:13:22;;;;;;;;;;;15.30;73.00;;;;;;4256657;27;20430;-63
2021/11/07 06:15:25;;;;;;;;;;;15.30;73.00;;;;;;4246156;28;20463;-68
2021/11/07 06:17:28;;;;;;;;;;;15.30;73.00;;;;;;4255900;27;19919;-65
2021/11/07 06:19:30;;;;;;;;;;;15.30;73.00;;;;;;4264655;27;19919;-68
2021/11/07 06:21:35;;;;;;;;;;;15.30;73.30;;;;;;4265172;27;20007;-64
2021/11/07 06:23:38;;;;;;;;;;;15.20;73.30;;;;;;4260754;27;20043;-63
2021/11/07 06:25:42;;;;;;;;;;;15.30;73.20;;;;;;4249207;27;20336;-64
2021/11/07 06:27:45;;;;;;;;;;;15.30;73.00;;;;;;4241043;27;19927;-64
2021/11/07 06:29:47;;;;;;;;;;;15.30;73.00;;;;;;4252581;27;19919;-65
2021/11/07 06:31:52;;;;;;;;;;;15.30;73.30;;;;;;4253243;27;19931;-65
2021/11/07 06:33:54;;;;;;;;;;;15.30;73.00;;;;;;4249908;27;20387;-63
2021/11/07 06:35:57;;;;;;;;;;;15.20;73.20;;;;;;4249051;27;19919;-67
2021/11/07 06:38:01;;;;;;;;;;;15.30;73.20;;;;;;4254046;27;19919;-64
2021/11/07 06:40:04;;;;;;;;;;;15.30;73.50;;;;;;4262862;27;19923;-63
2021/11/07 06:42:09;;;;;;;;;;;15.30;73.40;;;;;;4264842;27;19923;-66
2021/11/07 06:44:12;;;;;;;;;;;15.30;73.40;;;;;;4254638;27;19922;-64
2021/11/07 06:46:15;;;;;;;;;;;15.30;73.30;;;;;;4265852;27;19948;-66
2021/11/07 06:48:18;;;;;;;;;;;15.30;73.20;;;;;;4259785;27;19972;-66
2021/11/07 06:50:21;;;;;;;;;;;15.30;73.60;;;;;;4252765;27;19972;-68
2021/11/07 06:52:25;;;;;;;;;;;15.20;73.60;;;;;;4250240;27;20383;-65
2021/11/07 06:54:27;;;;;;;;;;;15.30;73.30;;;;;;4260834;27;20403;-64
2021/11/07 06:56:31;;;;;;;;;;;15.20;73.40;;;;;;4248695;27;19942;-65
2021/11/07 06:58:35;;;;;;;;;;;15.30;73.30;;;;;;4256459;27;20413;-65
2021/11/07 07:00:38;;;;;;;;;;;15.30;73.50;;;;;;4252840;27;20329;-66
2021/11/07 07:02:41;;;;;;;;;;;15.30;73.50;;;;;;4249977;27;19919;-66
2021/11/07 07:04:44;;;;;;;;;;;15.30;73.60;;;;;;4260562;27;19973;-64
2021/11/07 07:06:47;;;;;;;;;;;15.20;73.60;;;;;;4249056;27;19979;-67
2021/11/07 07:08:56;;;;;;;;;;;15.30;73.90;;;;;;4255833;27;20474;-67
2021/11/07 07:11:06;;;;;;;;;;;15.30;73.80;;;;;;4253002;27;19980;-66
2021/11/07 07:13:15;;;;;;;;;;;15.30;73.80;;;;;;4250704;27;20323;-64
2021/11/07 07:15:26;;;;;;;;;;;15.30;73.80;;;;;;4260858;27;20260;-66
2021/11/07 07:17:38;;;;;;;;;;;15.30;73.70;;;;;;4248869;27;20305;-68
2021/11/07 07:28:57;;;;;;;;;;;15.30;74.10;;;;;;4252134;27;19919;-67
2021/11/07 07:31:22;;;;;;;;;;;15.30;73.70;;;;;;4254962;27;20614;-65
2021/11/07 07:35:27;;;;;;;;;;;15.30;74.10;;;;;;4262152;27;19967;-66
2021/11/07 07:37:30;;;;;;;;;;;15.30;73.80;;;;;;4250382;27;19941;-67
2021/11/07 07:39:32;;;;;;;;;;;15.30;74.20;;;;;;4255413;27;19976;-64
2021/11/07 07:41:35;;;;;;;;;;;15.30;74.40;;;;;;4259863;27;19919;-69
2021/11/07 07:43:39;;;;;;;;;;;15.30;74.00;;;;;;4267843;27;20280;-67
2021/11/07 07:45:42;;;;;;;;;;;15.30;73.60;;;;;;4265875;27;19964;-68
2021/11/07 07:47:46;;;;;;;;;;;15.30;74.00;;;;;;4250310;27;19972;-63
2021/11/07 07:49:49;;;;;;;;;;;15.30;74.20;;;;;;4259976;27;20309;-67
2021/11/07 07:51:54;;;;;;;;;;;15.30;74.30;;;;;;4257770;27;19919;-68
2021/11/07 07:54:00;;;;;;;;;;;15.30;74.30;;;;;;4248563;27;19919;-69
2021/11/07 07:56:03;;;;;;;;;;;15.30;74.40;;;;;;4261344;27;19964;-64
2021/11/07 07:58:06;;;;;;;;;;;15.30;74.40;;;;;;4248877;27;19923;-65
2021/11/07 08:00:15;;;;;;;;;;;15.30;74.30;;;;;;4251884;27;19971;-64
2021/11/07 08:02:17;;;;;;;;;;;15.30;74.40;;;;;;4265188;27;19923;-66
2021/11/07 08:04:22;;;;;;;;;;;15.30;74.30;;;;;;4265284;27;19919;-68
2021/11/07 08:06:24;;;;;;;;;;;15.30;74.30;;;;;;4249143;27;19927;-64
2021/11/07 08:08:28;;;;;;;;;;;15.30;74.30;;;;;;4265186;27;19964;-65
2021/11/07 08:10:31;;;;;;;;;;;15.30;74.50;;;;;;4260727;27;19948;-67
2021/11/07 08:12:34;;;;;;;;;;;15.30;74.20;;;;;;4256137;27;20320;-65
2021/11/07 08:14:37;;;;;;;;;;;15.30;74.10;;;;;;4264639;27;19922;-64
2021/11/07 08:16:40;;;;;;;;;;;15.30;74.20;;;;;;4252169;27;19949;-64
2021/11/07 08:18:43;;;;;;;;;;;15.30;74.30;;;;;;4249179;27;20294;-64
2021/11/07 08:20:48;;;;;;;;;;;15.30;74.00;;;;;;4232486;27;19920;-65
2021/11/07 08:22:51;;;;;;;;;;;15.30;74.20;;;;;;4256497;27;20317;-68
2021/11/07 08:24:54;;;;;;;;;;;15.30;74.30;;;;;;4247788;27;19976;-65
2021/11/07 08:26:57;;;;;;;;;;;15.30;74.70;;;;;;4259295;27;19975;-66
2021/11/07 08:29:00;;;;;;;;;;;15.30;75.10;;;;;;4248128;27;19983;-68
2021/11/07 08:31:06;;;;;;;;;;;15.30;74.40;;;;;;4253301;27;19919;-65
2021/11/07 08:33:09;;;;;;;;;;;15.30;74.20;;;;;;4256647;27;19934;-64
2021/11/07 08:35:12;;;;;;;;;;;15.30;74.50;;;;;;4247157;27;20051;-68
2021/11/07 08:37:17;;;;;;;;;;;15.30;74.30;;;;;;4258629;27;20313;-65
2021/11/07 08:39:27;;;;;;;;;;;15.30;74.60;;;;;;4248203;27;19920;-68
2021/11/07 08:41:31;;;;;;;;;;;15.30;74.50;;;;;;4251344;27;19964;-69
2021/11/07 09:02:11;;;;;;;;;;;15.30;74.80;;;;;;4248184;27;19926;-64
2021/11/07 09:04:23;;;;;;;;;;;15.30;74.70;;;;;;4254850;27;20420;-67
2021/11/07 09:08:42;;;;;;;;;;;15.40;74.60;;;;;;4258449;27;19923;-67
2021/11/07 09:10:46;;;;;;;;;;;15.30;74.70;;;;;;4246873;27;20428;-65
2021/11/07 09:12:49;;;;;;;;;;;15.40;74.70;;;;;;4252499;27;19979;-68
2021/11/07 09:14:53;;;;;;;;;;;15.40;74.90;;;;;;4253340;27;19931;-68
2021/11/07 09:16:56;;;;;;;;;;;15.30;74.60;;;;;;4228876;27;20365;-64
2021/11/07 09:19:00;;;;;;;;;;;15.30;74.50;;;;;;4251858;27;19923;-65
2021/11/07 09:21:14;;;;;;;;;;;15.40;74.80;;;;;;4263887;27;19919;-64
2021/11/07 09:23:24;;;;;;;;;;;15.40;74.80;;;;;;4256665;27;19919;-65
2021/11/07 09:28:01;;;;;;;;;;;15.40;75.00;;;;;;4232535;27;19919;-66
2021/11/07 09:34:38;;;;;;;;;;;15.40;74.90;;;;;;4257746;27;19919;-65
2021/11/07 09:36:44;;;;;;;;;;;15.40;75.00;;;;;;4247425;27;19927;-70
2021/11/07 09:38:58;;;;;;;;;;;15.40;75.10;;;;;;4256491;27;20559;-65
2021/11/07 09:43:50;;;;;;;;;;;15.40;75.00;;;;;;4205411;28;19970;-67
2021/11/07 09:46:20;;;;;;;;;;;15.50;75.10;;;;;;4203956;28;20369;-69
2021/11/07 09:48:22;;;;;;;;;;;15.40;75.40;;;;;;4216425;27;19919;-65
2021/11/07 09:50:25;;;;;;;;;;;15.50;75.50;;;;;;4255179;27;20467;-65
2021/11/07 09:52:34;;;;;;;;;;;15.50;75.30;;;;;;4247921;28;20390;-68
2021/11/07 09:54:39;;;;;;;;;;;15.50;75.40;;;;;;4236751;27;19969;-71
2021/11/07 09:56:49;;;;;;;;;;;15.50;75.80;;;;;;4249239;27;19927;-65
2021/11/07 09:58:54;;;;;;;;;;;15.50;75.60;;;;;;4268479;27;19919;-71
2021/11/07 10:00:58;;;;;;;;;;;15.50;76.00;;;;;;4259191;27;20363;-68
2021/11/07 10:03:00;;;;;;;;;;;15.60;76.20;;;;;;4269961;27;19919;-70
2021/11/07 10:05:04;;;;;;;;;;;15.50;75.40;;;;;;4259921;27;19923;-68
2021/11/07 10:07:14;;;;;;;;;;;15.60;75.00;;;;;;4268578;27;19983;-68
2021/11/07 10:09:27;;;;;;;;;;;15.60;75.40;;;;;;4266625;27;19946;-66
2021/11/07 10:11:40;;;;;;;;;;;15.60;75.30;;;;;;4260540;27;19919;-67
2021/11/07 10:13:57;;;;;;;;;;;15.60;75.50;;;;;;4250898;27;19920;-65
2021/11/07 10:16:04;;;;;;;;;;;15.60;76.00;;;;;;4266482;27;19964;-68
2021/11/07 10:18:11;;;;;;;;;;;15.60;75.80;;;;;;4269590;27;20309;-66
2021/11/07 10:20:26;;;;;;;;;;;15.60;76.30;;;;;;4264445;27;19971;-64
2021/11/07 10:22:32;;;;;;;;;;;15.60;76.40;;;;;;4255311;27;20283;-64
2021/11/07 10:24:38;;;;;;;;;;;15.60;76.30;;;;;;4253192;27;20279;-65
2021/11/07 10:26:43;;;;;;;;;;;15.60;76.20;;;;;;4263407;27;20384;-67
2021/11/07 10:28:54;;;;;;;;;;;15.60;76.40;;;;;;4251856;27;19984;-65
2021/11/07 10:31:09;;;;;;;;;;;15.60;76.20;;;;;;4261597;27;19967;-67
2021/11/07 10:33:31;;;;;;;;;;;15.60;76.40;;;;;;4268571;27;19922;-68
2021/11/07 10:36:22;;;;;;;;;;;15.60;75.90;;;;;;4262464;27;19920;-68
2021/11/07 10:40:33;;;;;;;;;;;15.60;75.80;;;;;;4265317;27;19919;-67
2021/11/07 10:43:11;;;;;;;;;;;15.70;75.80;;;;;;4260313;27;19926;-65
2021/11/07 10:45:14;;;;;;;;;;;15.60;76.20;;;;;;4265189;27;20320;-67
2021/11/07 10:52:07;;;;;;;;;;;15.60;75.70;;;;;;4263045;27;20359;-65
2021/11/07 10:54:14;;;;;;;;;;;15.70;75.70;;;;;;4251248;27;19923;-69
2021/11/07 10:56:18;;;;;;;;;;;15.70;75.40;;;;;;4257605;27;20412;-66
2021/11/07 10:58:25;;;;;;;;;;;15.70;76.10;;;;;;4239415;27;20384;-68
2021/11/07 11:00:29;;;;;;;;;;;15.70;75.50;;;;;;4252501;27;19919;-67
2021/11/07 11:02:34;;;;;;;;;;;15.70;76.00;;;;;;4263120;27;19919;-71
2021/11/07 11:04:52;;;;;;;;;;;15.70;76.20;;;;;;4251887;27;19919;-66
2021/11/07 11:06:56;;;;;;;;;;;15.70;75.90;;;;;;4255614;27;19964;-65
2021/11/07 11:09:06;;;;;;;;;;;15.70;75.60;;;;;;4252464;27;20348;-70
2021/11/07 11:15:38;;;;;;;;;;;15.70;76.30;;;;;;4265846;27;19948;-70
2021/11/07 11:18:02;;;;;;;;;;;15.70;75.70;;;;;;4252889;27;19939;-65
2021/11/07 11:20:26;;;;;;;;;;;15.70;75.60;;;;;;4248496;27;19920;-65
2021/11/07 11:27:06;;;;;;;;;;;15.70;76.30;;;;;;4262891;27;19919;-64
2021/11/07 11:31:34;;;;;;;;;;;15.70;75.40;;;;;;4261326;27;19968;-65
2021/11/07 11:33:46;;;;;;;;;;;15.70;75.60;;;;;;4259998;27;19928;-68
2021/11/07 11:36:03;;;;;;;;;;;15.80;76.30;;;;;;4247975;27;20307;-65
2021/11/07 11:38:16;;;;;;;;;;;15.70;76.00;;;;;;4252510;27;20389;-67
2021/11/07 11:43:05;;;;;;;;;;;15.80;75.40;;;;;;4261924;27;19971;-66
2021/11/07 11:44:58;;;;;;;;;;;15.80;75.80;;;;;;4255938;27;19923;-66
2021/11/07 11:47:18;;;;;;;;;;;15.80;75.80;;;;;;4263313;27;19919;-71
2021/11/07 11:51:39;;;;;;;;;;;15.80;75.80;;;;;;4248654;27;19948;-68
2021/11/07 11:54:13;;;;;;;;;;;15.80;75.80;;;;;;4259200;27;20469;-67
2021/11/07 11:58:49;;;;;;;;;;;15.90;75.50;;;;;;4256422;27;19976;-67
2021/11/07 12:00:58;;;;;;;;;;;15.80;75.40;;;;;;4250406;27;19923;-65
2021/11/07 12:03:09;;;;;;;;;;;15.80;75.30;;;;;;4249250;27;19925;-67
2021/11/07 12:05:28;;;;;;;;;;;15.80;75.10;;;;;;4257062;27;19919;-64
2021/11/07 12:07:37;;;;;;;;;;;15.90;75.20;;;;;;4247678;27;19919;-66
2021/11/07 12:10:00;;;;;;;;;;;15.90;75.20;;;;;;4252696;27;19919;-69
2021/11/07 12:12:09;;;;;;;;;;;15.90;75.40;;;;;;4265047;27;19923;-65
2021/11/07 12:14:15;;;;;;;;;;;15.90;75.10;;;;;;4260218;27;19971;-68
2021/11/07 12:16:38;;;;;;;;;;;15.90;75.10;;;;;;4250481;27;20345;-68
2021/11/07 12:19:00;;;;;;;;;;;15.80;75.30;;;;;;4251694;27;20419;-65
2021/11/07 12:21:04;;;;;;;;;;;15.90;75.20;;;;;;4257692;27;19926;-67
2021/11/07 12:23:17;;;;;;;;;;;15.80;75.20;;;;;;4263433;27;19919;-65
2021/11/07 12:25:27;;;;;;;;;;;15.80;75.30;;;;;;4259167;27;20448;-68
2021/11/07 12:27:34;;;;;;;;;;;15.90;75.50;;;;;;4247795;27;19935;-69
2021/11/07 12:29:38;;;;;;;;;;;15.90;75.70;;;;;;4255709;27;20522;-66
2021/11/07 12:31:55;;;;;;;;;;;15.90;75.50;;;;;;4251276;27;19926;-67
2021/11/07 12:40:59;;;;;;;;;;;15.90;75.20;;;;;;4259164;27;19969;-67
2021/11/07 12:43:03;;;;;;;;;;;15.90;75.40;;;;;;4248100;27;19992;-66
2021/11/07 12:45:26;;;;;;;;;;;15.90;75.60;;;;;;4254800;27;20509;-68
2021/11/07 12:47:46;;;;;;;;;;;15.90;75.50;;;;;;4248877;27;19919;-66
2021/11/07 12:49:55;;;;;;;;;;;15.90;75.00;;;;;;4255540;27;20004;-67
2021/11/07 12:52:07;;;;;;;;;;;15.90;74.90;;;;;;4256532;27;19923;-67
2021/11/07 12:54:13;;;;;;;;;;;15.90;75.10;;;;;;4263679;27;19948;-67
2021/11/07 12:56:25;;;;;;;;;;;15.90;74.80;;;;;;4259334;27;19918;-73
2021/11/07 12:58:29;;;;;;;;;;;15.90;74.60;;;;;;4247140;27;19939;-68
2021/11/07 13:00:33;;;;;;;;;;;15.90;74.60;;;;;;4254123;27;19919;-67
2021/11/07 13:02:35;;;;;;;;;;;15.90;74.60;;;;;;4252171;27;19927;-71
2021/11/07 13:04:42;;;;;;;;;;;16.00;74.60;;;;;;4248895;27;20047;-68
2021/11/07 13:06:47;;;;;;;;;;;15.90;74.50;;;;;;4258562;27;20288;-65
2021/11/07 13:08:55;;;;;;;;;;;15.90;74.60;;;;;;4246815;27;19926;-65
2021/11/07 13:11:25;;;;;;;;;;;15.90;74.40;;;;;;4254755;27;19923;-67
2021/11/07 13:17:59;;;;;;;;;;;15.90;74.50;;;;;;4255737;27;20288;-66
2021/11/07 13:20:40;;;;;;;;;;;15.90;74.70;;;;;;4247364;27;19926;-67
2021/11/07 13:24:55;;;;;;;;;;;15.90;74.40;;;;;;4264153;27;19979;-65
2021/11/07 13:31:15;;;;;;;;;;;16.00;74.30;;;;;;4262414;27;20286;-65
2021/11/07 13:33:18;;;;;;;;;;;16.00;74.20;;;;;;4254608;27;20271;-66
2021/11/07 13:35:23;;;;;;;;;;;16.00;74.20;;;;;;4246706;27;19961;-68
2021/11/07 13:37:31;;;;;;;;;;;16.00;74.20;;;;;;4246855;27;20050;-65
2021/11/07 13:39:35;;;;;;;;;;;16.00;74.20;;;;;;4245609;27;19919;-66
2021/11/07 13:41:41;;;;;;;;;;;16.00;74.10;;;;;;4261720;27;19919;-65
2021/11/07 13:43:47;;;;;;;;;;;16.00;74.10;;;;;;4253619;27;20070;-67
2021/11/07 13:45:52;;;;;;;;;;;16.00;74.10;;;;;;4246552;27;20313;-67
2021/11/07 13:47:56;;;;;;;;;;;16.00;74.10;;;;;;4240099;27;19972;-66
2021/11/07 13:50:01;;;;;;;;;;;16.00;74.10;;;;;;4254196;27;19923;-65
2021/11/07 13:52:04;;;;;;;;;;;16.00;74.00;;;;;;4250311;27;20383;-68
2021/11/07 13:54:06;;;;;;;;;;;16.00;74.00;;;;;;4256199;27;20356;-65
2021/11/07 13:56:09;;;;;;;;;;;16.00;74.10;;;;;;4263123;27;19968;-65
2021/11/07 13:58:14;;;;;;;;;;;16.00;73.90;;;;;;4250811;27;19949;-68
2021/11/07 14:00:20;;;;;;;;;;;16.00;73.90;;;;;;4263513;27;19929;-66
2021/11/07 14:02:23;;;;;;;;;;;16.00;73.80;;;;;;4257961;27;20360;-65
2021/11/07 14:04:37;;;;;;;;;;;16.00;74.00;;;;;;4256234;27;19972;-67
2021/11/07 14:06:42;;;;;;;;;;;16.00;73.80;;;;;;4261408;27;19919;-65
2021/11/07 14:08:46;;;;;;;;;;;16.00;74.00;;;;;;4251743;27;20348;-66
2021/11/07 14:10:48;;;;;;;;;;;16.00;74.00;;;;;;4263445;27;19923;-67
2021/11/07 14:12:55;;;;;;;;;;;16.00;73.80;;;;;;4256360;27;19923;-68
2021/11/07 14:15:10;;;;;;;;;;;16.00;74.00;;;;;;4257775;27;19919;-65